Veles, Macedonia
Current Conditions -  °F | °C
As of 3:30 AM on Saturday 29 Nov 2014 (Local Time) from LWSK Reporting Station
Haze Haze  
Wind Chill: 46°   Ceiling: 1000
Heat Index: 46°   Visibility: 3mi
Dew Point: 45°   Wind: 0mph
Humidity: 93%   Direction: NA
Pressure: 30.24"   Gusts: NA
Location:  41.73°N, 21.78°E
Report Text: LWSK 290130Z 00000KT 5000 BR OVC010 08/07 Q1024 NOSIG
Loading
Personal Weather Stations






























Interactive Weather Map New forecast layout! Learn more

10-Day Weather Forecast

Advertisements
Track Severe Weather on mobile